createdAt,value
2017-08-01T04:30:36.711Z,19.20
2017-08-01T04:33:04.970Z,19.20
2017-08-01T04:35:33.234Z,19.30
2017-08-01T04:38:01.552Z,19.30
2017-08-01T04:40:29.811Z,19.30
2017-08-01T04:42:58.102Z,19.30
2017-08-01T04:45:26.697Z,19.30
2017-08-01T04:47:55.050Z,19.30
2017-08-01T04:50:23.423Z,19.40
2017-08-01T04:52:51.711Z,19.40
2017-08-01T04:55:20.075Z,19.50
2017-08-01T04:57:48.350Z,19.60
2017-08-01T05:00:16.679Z,19.70
2017-08-01T05:02:45.006Z,19.70
2017-08-01T05:05:13.382Z,19.60
2017-08-01T05:07:41.718Z,19.70
2017-08-01T05:10:10.035Z,19.80
2017-08-01T05:12:38.361Z,19.80
2017-08-01T05:15:07.423Z,19.60
2017-08-01T05:17:35.666Z,19.60
2017-08-01T05:20:04.078Z,19.60
2017-08-01T05:22:33.370Z,19.80
2017-08-01T05:25:02.582Z,20.30
2017-08-01T05:27:30.851Z,20.90
2017-08-01T05:29:59.423Z,20.90
2017-08-01T05:32:27.713Z,21.70
2017-08-01T05:34:56.007Z,21.60
2017-08-01T05:37:25.028Z,21.60
2017-08-01T05:39:53.282Z,21.60
2017-08-01T05:42:23.250Z,22.90
2017-08-01T05:44:51.506Z,22.90
2017-08-01T05:47:19.799Z,22.50
2017-08-01T05:49:48.311Z,22.00
2017-08-01T05:52:17.513Z,21.90
2017-08-01T05:54:45.786Z,21.90
2017-08-01T05:57:14.117Z,21.30
2017-08-01T05:59:42.415Z,20.90
2017-08-01T06:02:10.671Z,20.90
2017-08-01T06:04:38.951Z,20.90
2017-08-01T06:07:07.243Z,20.80
2017-08-01T06:09:35.522Z,20.90
2017-08-01T06:12:03.916Z,21.10
2017-08-01T06:14:32.150Z,21.00
2017-08-01T06:17:00.438Z,21.00
2017-08-01T06:19:28.723Z,21.00
2017-08-01T06:21:57.006Z,21.10
2017-08-01T06:24:25.262Z,21.30
2017-08-01T06:26:53.567Z,21.70
2017-08-01T06:29:21.931Z,21.60
2017-08-01T15:02:04.183Z,27.20
2017-08-01T15:04:32.464Z,27.20
2017-08-01T15:07:00.752Z,27.00
2017-08-01T15:09:29.126Z,27.00
2017-08-01T15:11:57.508Z,26.80
2017-08-01T15:14:25.768Z,26.50
2017-08-01T15:16:54.276Z,26.20
2017-08-01T15:19:22.638Z,25.90
2017-08-01T15:21:50.900Z,25.70
2017-08-01T15:24:19.187Z,25.60
2017-08-01T15:26:47.450Z,25.40
2017-08-01T15:29:15.727Z,25.30
2017-08-01T15:31:43.999Z,25.30
2017-08-01T15:34:12.299Z,25.10
2017-08-01T15:36:40.651Z,25.00
2017-08-01T15:39:08.993Z,25.10
2017-08-01T15:41:38.011Z,25.00
2017-08-01T15:44:06.295Z,25.00
2017-08-01T15:46:34.703Z,24.90
2017-08-01T15:49:02.991Z,24.70
2017-08-01T15:51:31.370Z,24.70
2017-08-01T15:53:59.740Z,24.60
2017-08-01T15:56:27.992Z,24.60
2017-08-01T15:58:56.279Z,24.60
2017-08-01T16:01:24.532Z,24.70
2017-08-01T16:03:52.850Z,24.70
2017-08-01T16:06:21.111Z,24.80
2017-08-01T16:08:49.392Z,24.90
2017-08-01T16:11:17.651Z,25.10
2017-08-01T16:13:45.934Z,25.10
2017-08-01T16:16:14.187Z,25.00
2017-08-01T16:18:42.463Z,24.80
2017-08-01T16:21:10.776Z,24.60
2017-08-01T16:23:39.037Z,24.30
2017-08-01T16:26:07.290Z,24.30
2017-08-01T16:28:35.588Z,24.20
2017-08-01T16:31:03.880Z,24.10
2017-08-01T16:33:32.139Z,24.10
2017-08-01T16:36:00.491Z,24.00
2017-08-01T16:38:28.808Z,24.00
2017-08-01T16:40:57.094Z,23.90
2017-08-01T16:43:25.470Z,23.80
2017-08-01T16:45:53.779Z,23.80
2017-08-01T16:48:22.943Z,23.60
2017-08-01T16:50:51.223Z,23.60
2017-08-01T16:53:19.602Z,23.60
2017-08-01T16:55:47.875Z,23.50
2017-08-01T16:58:16.905Z,23.50
2017-08-01T17:00:45.211Z,23.50
2017-08-01T17:03:13.467Z,23.40
2017-08-01T17:05:41.768Z,23.30
2017-08-01T17:08:10.064Z,23.20
2017-08-01T17:10:38.355Z,23.20
2017-08-01T17:13:06.616Z,23.10
2017-08-01T17:15:35.204Z,23.10
2017-08-01T17:18:03.586Z,23.00
2017-08-01T17:20:31.971Z,23.00
2017-08-01T17:23:00.231Z,22.90
2017-08-01T17:25:28.515Z,22.90
2017-08-01T17:27:56.779Z,22.90
2017-08-01T17:30:26.004Z,22.90
2017-08-01T17:32:55.039Z,22.70
2017-08-01T17:35:23.303Z,22.70
2017-08-01T17:37:51.625Z,22.60
2017-08-01T17:40:19.989Z,22.50
2017-08-01T17:42:48.244Z,22.50
2017-08-01T17:45:16.544Z,22.40
2017-08-01T17:47:44.823Z,22.40
2017-08-01T17:50:13.116Z,22.40
2017-08-01T17:52:41.621Z,22.20
2017-08-01T17:55:11.003Z,22.20
2017-08-01T17:57:39.283Z,22.20
2017-08-01T18:00:07.754Z,22.20
2017-08-01T18:02:36.027Z,22.20
2017-08-01T18:05:04.290Z,22.00
2017-08-01T18:07:33.382Z,21.90
2017-08-01T18:10:01.797Z,21.60
2017-08-01T18:12:30.992Z,21.70
2017-08-01T18:15:00.068Z,21.40
2017-08-01T18:17:28.363Z,21.40
2017-08-01T18:19:56.720Z,21.30
2017-08-01T18:22:25.095Z,21.20
2017-08-01T18:24:53.488Z,21.20
2017-08-01T18:27:21.867Z,21.10
2017-08-01T18:29:51.108Z,21.00
2017-08-01T18:32:19.428Z,21.00
2017-08-01T18:34:47.696Z,20.90
2017-08-01T18:37:15.980Z,20.90
2017-08-01T18:39:44.334Z,20.80
2017-08-01T18:42:12.753Z,20.80
2017-08-01T18:44:41.008Z,20.70
2017-08-01T18:47:09.324Z,20.70
2017-08-01T18:49:38.366Z,20.70
2017-08-01T18:52:06.651Z,20.60
2017-08-01T18:54:35.259Z,20.60
2017-08-01T18:57:04.376Z,20.70
2017-08-01T18:59:33.543Z,20.70
2017-08-01T19:02:01.857Z,20.70
2017-08-01T19:04:31.035Z,20.70
2017-08-01T19:07:00.131Z,20.60
2017-08-01T19:09:29.603Z,20.60
2017-08-01T19:14:29.762Z,20.60
2017-08-01T19:16:58.132Z,20.40
2017-08-01T19:19:28.299Z,20.40
2017-08-01T19:21:56.601Z,20.40
2017-08-01T19:24:24.868Z,20.40
2017-08-01T19:26:54.001Z,20.50
2017-08-01T19:29:22.384Z,20.40
2017-08-01T19:31:51.586Z,20.20
2017-08-01T19:34:19.852Z,20.00
2017-08-01T19:36:48.225Z,19.90
2017-08-01T19:39:16.934Z,19.80
2017-08-01T19:41:45.814Z,19.70
2017-08-01T19:44:14.604Z,19.80
2017-08-01T19:46:44.016Z,19.60
2017-08-01T19:49:12.486Z,19.60
2017-08-01T19:51:40.954Z,19.70
2017-08-01T19:54:09.336Z,19.70
2017-08-01T19:56:38.059Z,19.60
2017-08-01T19:59:06.385Z,19.70
2017-08-01T20:01:34.673Z,19.70
2017-08-01T20:04:03.043Z,19.90
2017-08-01T20:06:31.343Z,19.80
2017-08-01T20:09:00.538Z,19.70
2017-08-01T20:11:29.007Z,19.70
2017-08-01T20:13:57.275Z,19.70
2017-08-01T20:16:25.777Z,19.60
2017-08-01T20:18:54.074Z,19.50
2017-08-01T20:21:23.353Z,19.40
2017-08-01T20:23:51.714Z,19.40
2017-08-01T20:26:20.416Z,19.40
2017-08-01T20:28:48.898Z,19.30
2017-08-01T20:31:17.213Z,19.30
2017-08-01T20:33:46.280Z,19.40
2017-08-01T20:36:15.356Z,19.30
2017-08-01T20:38:44.048Z,19.30
2017-08-01T20:41:12.418Z,19.40
2017-08-01T20:43:40.731Z,19.40
2017-08-01T20:46:09.807Z,19.40
2017-08-01T20:48:38.171Z,19.40
2017-08-01T20:51:06.558Z,19.40
2017-08-01T20:53:34.924Z,19.40
2017-08-01T20:56:03.200Z,19.40
2017-08-01T20:58:31.564Z,19.50
2017-08-01T21:00:59.855Z,19.40
2017-08-01T21:03:28.236Z,19.20
2017-08-01T21:05:56.518Z,19.30
2017-08-01T21:08:24.897Z,19.40
2017-08-01T21:10:53.147Z,19.50
2017-08-01T21:13:21.459Z,19.50
2017-08-01T21:15:49.827Z,19.50
2017-08-01T21:18:18.094Z,19.40
2017-08-01T21:20:46.527Z,19.40
2017-08-01T21:23:15.677Z,19.60
2017-08-01T21:25:43.922Z,19.60
2017-08-01T21:28:12.315Z,19.60
2017-08-01T21:30:40.812Z,19.70
2017-08-01T21:33:09.079Z,19.80
2017-08-01T21:35:37.454Z,19.90
2017-08-01T21:38:05.718Z,19.80
2017-08-01T21:40:33.979Z,19.80
2017-08-01T21:43:02.283Z,19.90
2017-08-01T21:45:30.568Z,19.90
2017-08-01T21:47:58.879Z,20.00
2017-08-01T21:50:27.206Z,20.00
2017-08-01T21:52:55.482Z,20.10
2017-08-01T21:55:24.091Z,20.00
2017-08-01T21:57:52.442Z,20.00
2017-08-01T22:00:20.839Z,20.00
2017-08-01T22:02:49.083Z,20.00
2017-08-01T22:05:17.388Z,19.90
2017-08-01T22:07:45.652Z,19.90
2017-08-01T22:10:13.964Z,19.80
2017-08-01T22:12:42.986Z,19.80
2017-08-01T22:15:11.246Z,19.70
2017-08-01T22:17:39.530Z,19.80
2017-08-01T22:20:07.852Z,19.80
2017-08-01T22:22:36.346Z,19.90
2017-08-01T22:25:04.704Z,19.80
2017-08-01T22:27:32.982Z,19.80
2017-08-01T22:30:01.378Z,19.80
2017-08-01T22:32:29.634Z,19.80
2017-08-01T22:34:58.246Z,19.80
2017-08-01T22:37:26.599Z,19.80
2017-08-01T22:39:54.978Z,19.80
2017-08-01T22:42:23.279Z,19.80
2017-08-01T22:44:51.547Z,19.70
